Time;durP1;ratioP1;P1;durP2;ratioP2;P2;SDS_P1;SDS_P2;PMS_P1;PMS_P2;Temp;Humidity;BMP_temperature;BMP_pressure;BME280_temperature;BME280_humidity;BME280_pressure;Samples;Min_cycle;Max_cycle;Signal;HPM_P1;HPM_P2
2022/06/18 00:00:37;;;;;;;0.30;0.30;;;16.90;1.00;;;;;;5068241;28;20175;-71
2022/06/18 00:03:03;;;;;;;0.30;0.30;;;16.90;1.00;;;;;;5073104;28;20312;-72
2022/06/18 00:05:31;;;;;;;0.30;0.30;;;16.90;1.00;;;;;;5073315;28;20550;-71
2022/06/18 00:07:57;;;;;;;0.40;0.40;;;16.90;1.00;;;;;;5070633;28;20206;-72
2022/06/18 00:10:26;;;;;;;0.30;0.30;;;16.80;1.00;;;;;;5072292;28;20202;-72
2022/06/18 00:15:38;;;;;;;0.40;0.40;;;16.70;1.00;;;;;;5072968;28;20258;-71
2022/06/18 00:18:11;;;;;;;0.30;0.30;;;16.70;1.00;;;;;;5072815;28;20221;-71
2022/06/18 00:20:38;;;;;;;0.30;0.30;;;16.60;1.00;;;;;;5072336;28;20329;-71
2022/06/18 00:23:10;;;;;;;0.30;0.30;;;16.60;1.00;;;;;;5072895;28;20190;-71
2022/06/18 00:25:38;;;;;;;0.27;0.27;;;16.60;1.00;;;;;;5072938;28;20667;-71
2022/06/18 00:28:12;;;;;;;0.30;0.30;;;16.50;1.00;;;;;;5072684;28;20183;-71
2022/06/18 00:30:39;;;;;;;0.30;0.30;;;16.50;1.00;;;;;;5072188;28;20181;-72
2022/06/18 00:33:05;;;;;;;0.40;0.40;;;16.40;1.00;;;;;;5072531;28;20198;-71
2022/06/18 00:35:32;;;;;;;0.40;0.40;;;16.40;1.00;;;;;;5070792;28;20182;-71
2022/06/18 00:37:59;;;;;;;0.30;0.30;;;16.40;1.00;;;;;;5072780;28;20178;-71
2022/06/18 00:40:30;;;;;;;0.30;0.30;;;16.30;1.00;;;;;;5071952;28;20170;-71
2022/06/18 00:42:59;;;;;;;0.30;0.30;;;16.30;1.00;;;;;;5072375;28;20198;-71
2022/06/18 00:45:28;;;;;;;0.20;0.20;;;16.30;1.00;;;;;;5072235;28;20644;-72
2022/06/18 00:48:12;;;;;;;0.37;0.37;;;16.30;1.00;;;;;;5072550;28;20178;-72
2022/06/18 00:50:46;;;;;;;0.33;0.33;;;16.30;1.00;;;;;;5071906;28;20218;-71
2022/06/18 00:53:23;;;;;;;0.30;0.30;;;16.20;1.00;;;;;;5072156;28;20194;-72
2022/06/18 00:55:55;;;;;;;0.30;0.30;;;16.20;1.00;;;;;;5071089;28;20232;-72
2022/06/18 00:58:22;;;;;;;0.27;0.27;;;16.10;1.00;;;;;;5072405;28;20170;-72
2022/06/18 01:00:49;;;;;;;0.30;0.30;;;16.10;1.00;;;;;;5071663;28;20236;-72
2022/06/18 01:03:48;;;;;;;0.30;0.30;;;16.10;1.00;;;;;;5070128;28;20233;-72
2022/06/18 01:06:22;;;;;;;0.40;0.40;;;16.10;1.00;;;;;;4997345;28;20179;-72
2022/06/18 01:08:54;;;;;;;0.30;0.30;;;16.00;1.00;;;;;;5051824;28;20292;-72
2022/06/18 01:11:23;;;;;;;0.30;0.30;;;16.00;1.00;;;;;;5052015;28;20199;-71
2022/06/18 01:13:49;;;;;;;0.40;0.40;;;16.00;1.00;;;;;;5051938;28;20192;-71
2022/06/18 01:16:18;;;;;;;0.27;0.27;;;16.00;1.00;;;;;;5051927;28;20180;-71
2022/06/18 01:18:46;;;;;;;0.30;0.30;;;15.90;1.00;;;;;;5052162;28;20171;-72
2022/06/18 01:21:54;;;;;;;0.30;0.30;;;15.90;1.00;;;;;;5051482;28;20178;-72
2022/06/18 01:24:22;;;;;;;0.40;0.40;;;15.90;1.00;;;;;;5051569;28;20690;-72
2022/06/18 01:26:53;;;;;;;0.40;0.40;;;15.90;1.00;;;;;;5051700;28;20217;-72
2022/06/18 01:29:19;;;;;;;0.30;0.30;;;15.90;1.00;;;;;;5051007;28;20243;-72
2022/06/18 01:31:47;;;;;;;0.40;0.40;;;15.90;1.00;;;;;;5051815;28;20200;-72
2022/06/18 01:34:14;;;;;;;0.30;0.30;;;15.90;1.00;;;;;;5051675;28;20194;-72
2022/06/18 01:36:41;;;;;;;0.30;0.30;;;15.90;1.00;;;;;;5051633;28;20171;-72
2022/06/18 01:39:11;;;;;;;0.50;0.50;;;15.80;1.00;;;;;;5051011;28;20271;-72
2022/06/18 01:41:52;;;;;;;0.30;0.30;;;15.70;1.00;;;;;;5051080;28;20675;-72
2022/06/18 01:44:39;;;;;;;0.37;0.37;;;15.70;1.00;;;;;;5051492;28;20231;-72
2022/06/18 01:47:21;;;;;;;0.40;0.40;;;15.60;1.00;;;;;;5051312;28;20244;-71
2022/06/18 01:49:53;;;;;;;0.30;0.30;;;15.60;1.00;;;;;;5050588;28;20223;-72
2022/06/18 01:52:23;;;;;;;0.40;0.40;;;15.60;1.00;;;;;;5050548;28;20600;-71
2022/06/18 01:54:53;;;;;;;0.40;0.40;;;15.50;1.00;;;;;;5051128;28;20245;-72
2022/06/18 01:57:31;;;;;;;0.37;0.37;;;15.60;1.00;;;;;;5051180;28;20171;-71
2022/06/18 02:00:05;;;;;;;0.40;0.40;;;15.60;1.00;;;;;;5050461;28;20187;-71
2022/06/18 02:02:30;;;;;;;0.33;0.33;;;15.50;1.00;;;;;;5050843;28;20198;-71
2022/06/18 02:04:56;;;;;;;0.40;0.40;;;15.50;1.00;;;;;;5051016;28;20183;-71
2022/06/18 02:07:22;;;;;;;0.30;0.30;;;15.50;1.00;;;;;;5050930;28;20190;-71
2022/06/18 02:09:56;;;;;;;0.30;0.30;;;15.40;1.00;;;;;;5050328;28;20219;-71
2022/06/18 02:12:25;;;;;;;0.30;0.30;;;15.40;1.00;;;;;;5050698;28;20217;-71
2022/06/18 02:14:55;;;;;;;0.20;0.20;;;15.40;1.00;;;;;;5050735;28;20178;-72
2022/06/18 02:17:22;;;;;;;0.30;0.30;;;15.30;1.00;;;;;;5050962;28;20187;-71
2022/06/18 02:19:55;;;;;;;0.30;0.30;;;15.30;1.00;;;;;;5050309;28;20207;-71
2022/06/18 02:22:28;;;;;;;0.30;0.30;;;15.30;1.00;;;;;;5050498;28;20691;-71
2022/06/18 02:24:55;;;;;;;0.33;0.33;;;15.20;1.00;;;;;;5062335;28;20228;-71
2022/06/18 02:27:21;;;;;;;0.30;0.30;;;15.20;1.00;;;;;;5070349;28;20179;-71
2022/06/18 02:29:47;;;;;;;0.37;0.37;;;15.20;1.00;;;;;;5069796;28;20309;-71
2022/06/18 02:32:23;;;;;;;0.30;0.30;;;15.20;1.00;;;;;;5070460;28;20186;-71
2022/06/18 02:34:49;;;;;;;0.30;0.30;;;15.20;1.00;;;;;;5070422;28;20623;-71
2022/06/18 02:37:24;;;;;;;0.30;0.30;;;15.10;1.00;;;;;;5068248;28;20261;-71
2022/06/18 02:40:02;;;;;;;0.40;0.40;;;15.10;1.00;;;;;;5064551;28;20527;-71
2022/06/18 02:42:32;;;;;;;0.40;0.40;;;15.10;1.00;;;;;;5063532;28;20319;-71
2022/06/18 02:44:59;;;;;;;0.40;0.40;;;15.10;1.00;;;;;;5062855;28;20175;-71
2022/06/18 02:47:25;;;;;;;0.30;0.30;;;15.10;1.00;;;;;;5063669;28;20179;-72
2022/06/18 02:49:58;;;;;;;0.40;0.40;;;15.10;1.00;;;;;;5070050;28;20580;-71
2022/06/18 02:52:27;;;;;;;0.30;0.30;;;15.10;1.00;;;;;;5070484;28;20277;-71
2022/06/18 02:55:01;;;;;;;0.40;0.40;;;15.00;1.00;;;;;;5070965;28;20265;-71
2022/06/18 02:57:27;;;;;;;0.40;0.40;;;15.00;1.00;;;;;;5070404;28;20655;-71
2022/06/18 02:59:53;;;;;;;0.40;0.40;;;15.00;1.00;;;;;;5070513;28;20245;-72
2022/06/18 03:02:19;;;;;;;0.40;0.40;;;15.00;1.00;;;;;;5070705;28;20290;-72
2022/06/18 03:04:44;;;;;;;0.40;0.40;;;14.90;1.00;;;;;;5070879;28;20167;-72
2022/06/18 03:07:10;;;;;;;0.40;0.40;;;14.90;1.00;;;;;;5070475;28;20678;-72
2022/06/18 03:12:06;;;;;;;0.40;0.40;;;14.90;1.00;;;;;;5070127;28;20304;-72
2022/06/18 03:12:21;;;;;;;0.30;0.30;;;14.90;1.00;;;;;;5069099;28;20190;-72
2022/06/18 03:14:47;;;;;;;0.40;0.40;;;14.90;1.00;;;;;;5070395;28;20287;-72
2022/06/18 03:17:13;;;;;;;0.30;0.30;;;14.90;1.00;;;;;;5070491;28;20177;-72
2022/06/18 03:19:44;;;;;;;0.40;0.40;;;14.80;1.00;;;;;;5072612;28;20171;-72
2022/06/18 03:22:14;;;;;;;0.40;0.40;;;14.80;1.00;;;;;;5073809;28;20194;-72
2022/06/18 03:24:41;;;;;;;0.43;0.43;;;14.80;1.00;;;;;;5074126;28;20177;-72
2022/06/18 03:27:07;;;;;;;0.40;0.40;;;14.70;1.00;;;;;;5073922;28;20171;-71
2022/06/18 03:29:33;;;;;;;0.40;0.40;;;14.70;1.00;;;;;;5073472;28;20210;-72
2022/06/18 03:32:01;;;;;;;0.37;0.37;;;14.70;1.00;;;;;;5073806;28;20190;-72
2022/06/18 03:34:26;;;;;;;0.40;0.40;;;14.70;1.00;;;;;;5074115;28;20598;-72
2022/06/18 03:36:52;;;;;;;0.30;0.30;;;14.70;1.00;;;;;;5073839;28;20687;-72
2022/06/18 03:39:17;;;;;;;0.30;0.30;;;14.60;1.00;;;;;;5073427;28;20186;-71
2022/06/18 03:41:43;;;;;;;0.37;0.37;;;14.60;1.00;;;;;;5073662;28;20194;-71
2022/06/18 03:44:09;;;;;;;0.30;0.30;;;14.80;1.00;;;;;;5073408;28;20245;-71
2022/06/18 03:46:37;;;;;;;0.30;0.30;;;14.60;1.00;;;;;;5073410;28;20170;-72
2022/06/18 03:49:04;;;;;;;0.30;0.30;;;14.60;1.00;;;;;;5073133;28;20521;-72
2022/06/18 03:51:31;;;;;;;0.33;0.33;;;14.60;1.00;;;;;;5073533;28;20251;-71
2022/06/18 03:53:57;;;;;;;0.33;0.33;;;14.60;1.00;;;;;;5069789;28;20206;-71
2022/06/18 03:56:26;;;;;;;0.40;0.40;;;14.60;1.00;;;;;;5073173;28;20216;-71
2022/06/18 03:58:53;;;;;;;0.30;0.30;;;14.70;1.00;;;;;;5072867;28;20259;-71
2022/06/18 04:01:22;;;;;;;0.30;0.30;;;14.70;1.00;;;;;;5072947;28;20295;-71
2022/06/18 04:03:47;;;;;;;0.30;0.30;;;14.70;1.00;;;;;;5073579;28;20174;-72
2022/06/18 04:06:16;;;;;;;0.30;0.30;;;14.80;1.00;;;;;;5073534;28;20185;-72
2022/06/18 04:08:45;;;;;;;0.30;0.30;;;14.90;1.00;;;;;;5073232;28;20206;-72
2022/06/18 04:11:11;;;;;;;0.40;0.40;;;14.90;1.00;;;;;;5072764;28;20174;-72
2022/06/18 04:13:38;;;;;;;0.33;0.33;;;15.00;1.00;;;;;;5071132;28;20239;-71
2022/06/18 04:16:04;;;;;;;0.40;0.40;;;15.00;1.00;;;;;;5073018;28;20246;-71
2022/06/18 04:18:30;;;;;;;0.33;0.33;;;15.10;1.00;;;;;;5073273;28;20178;-71
2022/06/18 04:20:56;;;;;;;0.33;0.33;;;15.20;1.00;;;;;;5072490;28;20266;-71
2022/06/18 04:23:22;;;;;;;0.30;0.30;;;15.30;1.00;;;;;;5072988;28;20269;-71
2022/06/18 04:25:47;;;;;;;0.40;0.40;;;15.40;1.00;;;;;;5073109;28;20185;-70
2022/06/18 04:28:15;;;;;;;0.30;0.30;;;15.40;1.00;;;;;;5072870;28;20190;-69
2022/06/18 04:30:41;;;;;;;0.30;0.30;;;15.50;1.00;;;;;;5072303;28;20236;-69
2022/06/18 04:33:07;;;;;;;0.30;0.30;;;15.50;1.00;;;;;;5072842;28;20231;-69
2022/06/18 04:35:33;;;;;;;0.40;0.40;;;15.60;1.00;;;;;;5072932;28;20248;-70
2022/06/18 04:37:59;;;;;;;0.30;0.30;;;15.70;1.00;;;;;;5072721;28;20166;-70
2022/06/18 04:40:32;;;;;;;0.33;0.33;;;15.80;1.00;;;;;;5072182;28;20266;-69
2022/06/18 04:43:02;;;;;;;0.37;0.37;;;15.90;1.00;;;;;;5072025;28;20206;-69
2022/06/18 04:45:29;;;;;;;0.30;0.30;;;16.10;1.00;;;;;;5072358;28;20186;-69
2022/06/18 04:47:55;;;;;;;0.37;0.37;;;16.20;1.00;;;;;;5072770;28;20182;-69
2022/06/18 04:50:25;;;;;;;0.30;0.30;;;16.20;1.00;;;;;;5072040;28;20270;-70
2022/06/18 04:52:50;;;;;;;0.30;0.30;;;16.10;1.00;;;;;;5072640;28;20198;-69
2022/06/18 04:55:16;;;;;;;0.30;0.30;;;16.00;1.00;;;;;;5068539;28;20186;-70
2022/06/18 04:57:42;;;;;;;0.30;0.30;;;16.10;1.00;;;;;;5063231;28;20193;-70
2022/06/18 05:00:08;;;;;;;0.30;0.30;;;16.30;1.00;;;;;;5063492;28;20551;-70
2022/06/18 05:02:35;;;;;;;0.40;0.40;;;16.30;1.00;;;;;;5067995;28;20198;-69
2022/06/18 05:05:03;;;;;;;0.30;0.30;;;16.40;1.00;;;;;;5072416;28;20197;-69
2022/06/18 05:07:28;;;;;;;0.30;0.30;;;16.60;1.00;;;;;;5066820;28;20179;-69
2022/06/18 05:09:54;;;;;;;0.30;0.30;;;16.60;1.00;;;;;;5070345;28;20652;-69
2022/06/18 05:12:20;;;;;;;0.40;0.40;;;16.50;1.00;;;;;;5071697;28;20204;-69
2022/06/18 05:14:45;;;;;;;0.30;0.30;;;16.60;1.00;;;;;;5072222;28;20576;-70
2022/06/18 05:17:24;;;;;;;0.30;0.30;;;16.60;1.00;;;;;;5072053;28;20170;-70
2022/06/18 05:19:50;;;;;;;0.30;0.30;;;16.70;1.00;;;;;;5061397;28;20812;-70
2022/06/18 05:22:15;;;;;;;0.30;0.30;;;16.70;1.00;;;;;;5062910;28;20308;-70
2022/06/18 05:24:41;;;;;;;0.30;0.30;;;16.60;1.00;;;;;;5064834;28;20186;-70
2022/06/18 05:27:18;;;;;;;0.30;0.30;;;16.70;1.00;;;;;;5060350;28;20179;-70
2022/06/18 05:29:43;;;;;;;0.40;0.40;;;16.90;1.00;;;;;;5054303;28;20267;-70
2022/06/18 05:32:09;;;;;;;0.30;0.30;;;17.20;99.90;;;;;;5051727;28;20191;-70
2022/06/18 05:34:34;;;;;;;0.37;0.37;;;17.30;61.20;;;;;;5051766;28;20175;-70
2022/06/18 05:37:00;;;;;;;0.40;0.40;;;17.40;1.00;;;;;;5051473;28;20786;-71
2022/06/18 05:39:25;;;;;;;0.30;0.30;;;17.50;1.00;;;;;;5066845;28;20542;-72
2022/06/18 05:41:51;;;;;;;0.20;0.20;;;17.60;1.00;;;;;;5066420;28;20198;-71
2022/06/18 05:44:16;;;;;;;0.40;0.40;;;17.60;99.90;;;;;;5056261;28;20282;-70
2022/06/18 05:46:42;;;;;;;0.40;0.40;;;17.90;99.90;;;;;;5063817;28;20174;-70
2022/06/18 05:49:08;;;;;;;0.30;0.30;;;18.10;99.90;;;;;;5070761;28;20612;-71
2022/06/18 05:51:34;;;;;;;0.37;0.37;;;18.30;1.00;;;;;;5071379;28;20226;-71
2022/06/18 05:53:59;;;;;;;0.30;0.30;;;18.40;1.00;;;;;;5071236;28;20192;-70
2022/06/18 05:56:25;;;;;;;0.30;0.30;;;18.60;1.00;;;;;;5071437;28;20216;-71
2022/06/18 05:58:51;;;;;;;0.30;0.30;;;18.50;1.00;;;;;;5063681;28;20201;-72
2022/06/18 06:01:16;;;;;;;0.30;0.30;;;18.60;1.00;;;;;;5070723;28;20685;-71
2022/06/18 06:03:42;;;;;;;0.30;0.30;;;18.60;99.90;;;;;;5071369;28;20228;-71
2022/06/18 06:06:08;;;;;;;0.30;0.30;;;18.60;1.00;;;;;;5071330;28;20245;-71
2022/06/18 06:08:34;;;;;;;0.30;0.30;;;18.60;99.90;;;;;;5071382;28;20206;-71
2022/06/18 06:13:43;;;;;;;0.30;0.30;;;19.10;1.00;;;;;;5070978;28;20455;-70
2022/06/18 06:16:09;;;;;;;0.40;0.40;;;19.20;1.00;;;;;;5071110;28;20162;-72
2022/06/18 06:18:35;;;;;;;0.30;0.30;;;19.30;99.90;;;;;;5071101;28;20525;-71
2022/06/18 06:21:01;;;;;;;0.30;0.30;;;19.40;1.00;;;;;;5070347;28;20178;-71
2022/06/18 06:23:27;;;;;;;0.30;0.30;;;19.30;1.00;;;;;;5071260;28;20711;-71
2022/06/18 06:25:53;;;;;;;0.40;0.40;;;19.30;67.80;;;;;;5071220;28;20674;-70
2022/06/18 06:28:22;;;;;;;0.30;0.30;;;19.40;1.00;;;;;;5071384;28;20693;-71
2022/06/18 06:30:48;;;;;;;0.30;0.30;;;19.60;99.90;;;;;;5070743;28;20174;-71
2022/06/18 06:33:14;;;;;;;0.30;0.30;;;19.80;99.90;;;;;;5071048;28;20248;-71
2022/06/18 06:35:40;;;;;;;0.30;0.30;;;20.00;1.00;;;;;;5070865;28;20590;-71
2022/06/18 06:38:06;;;;;;;0.20;0.20;;;20.10;25.40;;;;;;5071142;28;20696;-71
2022/06/18 06:40:32;;;;;;;0.30;0.30;;;20.20;99.90;;;;;;5070428;28;20179;-74
2022/06/18 06:43:00;;;;;;;0.30;0.30;;;20.40;99.90;;;;;;5070634;28;20277;-75
2022/06/18 06:45:29;;;;;;;0.30;0.30;;;20.40;1.00;;;;;;5070786;28;20263;-74
2022/06/18 06:47:54;;;;;;;0.40;0.40;;;20.50;1.00;;;;;;5070614;28;20193;-74
2022/06/18 06:50:21;;;;;;;0.30;0.30;;;20.70;1.00;;;;;;5070345;28;20225;-74
2022/06/18 06:52:49;;;;;;;0.30;0.30;;;21.00;1.00;;;;;;5070417;28;20233;-75
2022/06/18 06:58:20;;;;;;;0.20;0.20;;;21.50;1.00;;;;;;5074753;28;20678;-74
2022/06/18 07:00:51;;;;;;;0.30;0.30;;;21.60;99.90;;;;;;5074230;28;20263;-74
2022/06/18 07:03:20;;;;;;;0.30;0.30;;;21.70;99.90;;;;;;5074645;28;20204;-74
2022/06/18 07:05:45;;;;;;;0.30;0.30;;;21.80;99.90;;;;;;5074648;28;20178;-74
2022/06/18 07:08:12;;;;;;;0.30;0.30;;;22.00;99.90;;;;;;5074482;28;20599;-74
2022/06/18 07:10:38;;;;;;;0.30;0.30;;;22.30;99.90;;;;;;5073685;28;20230;-74
2022/06/18 07:13:04;;;;;;;0.30;0.30;;;22.60;48.30;;;;;;5074412;28;20270;-74
2022/06/18 07:15:30;;;;;;;0.20;0.20;;;22.90;1.00;;;;;;5074345;28;20178;-74
2022/06/18 07:17:56;;;;;;;0.30;0.30;;;22.90;1.00;;;;;;5074433;28;20660;-75
2022/06/18 07:20:22;;;;;;;0.27;0.27;;;23.20;1.00;;;;;;5073852;28;20605;-74
2022/06/18 07:22:48;;;;;;;0.30;0.30;;;23.10;1.00;;;;;;5074085;28;20194;-74
2022/06/18 07:25:14;;;;;;;0.40;0.40;;;23.30;1.00;;;;;;5074073;28;20182;-74
2022/06/18 07:27:40;;;;;;;0.20;0.20;;;23.50;1.00;;;;;;5074085;28;20260;-73
2022/06/18 07:30:08;;;;;;;0.30;0.30;;;23.50;1.00;;;;;;5074366;28;20218;-75
2022/06/18 07:32:35;;;;;;;0.30;0.30;;;23.70;1.00;;;;;;5074028;28;20703;-75
2022/06/18 07:35:01;;;;;;;0.30;0.30;;;23.70;1.00;;;;;;5074023;28;20181;-74
2022/06/18 07:37:28;;;;;;;0.30;0.30;;;24.00;1.00;;;;;;5074196;28;20178;-73
2022/06/18 07:39:54;;;;;;;0.40;0.40;;;24.10;1.00;;;;;;5073450;28;20189;-74
2022/06/18 07:42:21;;;;;;;0.27;0.27;;;24.40;1.00;;;;;;5073729;28;20190;-74
2022/06/18 07:44:46;;;;;;;0.20;0.20;;;24.70;1.00;;;;;;5073695;28;20178;-74
2022/06/18 07:47:14;;;;;;;0.30;0.30;;;24.90;1.00;;;;;;5074018;28;20316;-74
2022/06/18 07:49:40;;;;;;;0.20;0.20;;;25.20;1.00;;;;;;5073253;28;20297;-75
2022/06/18 07:52:05;;;;;;;0.30;0.30;;;25.40;1.00;;;;;;5074549;28;20675;-75
2022/06/18 07:54:31;;;;;;;0.33;0.33;;;25.80;1.00;;;;;;5073650;28;20594;-74
2022/06/18 07:56:57;;;;;;;0.27;0.27;;;26.00;1.00;;;;;;5073691;28;20175;-75
2022/06/18 07:59:23;;;;;;;0.30;0.30;;;26.20;1.00;;;;;;5073081;28;20166;-74
2022/06/18 08:01:49;;;;;;;0.30;0.30;;;26.40;1.00;;;;;;5073271;28;20723;-75
2022/06/18 08:04:14;;;;;;;0.30;0.30;;;26.60;1.00;;;;;;5073199;28;20274;-74
2022/06/18 08:06:40;;;;;;;0.30;0.30;;;26.80;1.00;;;;;;5072833;28;20257;-75
2022/06/18 08:09:06;;;;;;;0.40;0.40;;;27.00;1.00;;;;;;5060345;28;20249;-74
2022/06/18 08:11:31;;;;;;;0.20;0.20;;;27.20;1.00;;;;;;5053089;28;20660;-75
2022/06/18 08:13:58;;;;;;;0.37;0.37;;;27.60;1.00;;;;;;5052014;28;20179;-75
2022/06/18 08:16:24;;;;;;;0.30;0.30;;;27.90;1.00;;;;;;5058311;28;20175;-75
2022/06/18 08:18:50;;;;;;;0.40;0.40;;;28.20;1.00;;;;;;5072780;28;20563;-74
2022/06/18 08:21:26;;;;;;;0.30;0.30;;;28.20;1.00;;;;;;5072848;28;20174;-76
2022/06/18 08:23:56;;;;;;;0.40;0.40;;;28.30;1.00;;;;;;5065975;28;20175;-75
2022/06/18 08:26:24;;;;;;;0.30;0.30;;;28.40;1.00;;;;;;5063763;28;20241;-77
2022/06/18 08:28:50;;;;;;;0.50;0.50;;;28.40;1.00;;;;;;5073030;28;20245;-75
2022/06/18 08:31:15;;;;;;;0.50;0.50;;;28.40;1.00;;;;;;5072939;28;20175;-75
2022/06/18 08:33:41;;;;;;;0.43;0.43;;;28.40;1.00;;;;;;5072693;28;20197;-74
2022/06/18 08:36:11;;;;;;;0.50;0.50;;;28.70;1.00;;;;;;5060347;28;20408;-76
2022/06/18 08:38:39;;;;;;;0.50;0.50;;;29.00;1.00;;;;;;5054726;28;20559;-76
2022/06/18 08:41:11;;;;;;;0.47;0.47;;;29.10;1.00;;;;;;5052457;28;20179;-75
2022/06/18 08:43:54;;;;;;;0.40;0.40;;;29.40;1.00;;;;;;5052947;28;20368;-76
2022/06/18 08:46:46;;;;;;;0.60;0.60;;;29.70;1.00;;;;;;5052859;28;20175;-76
2022/06/18 08:49:41;;;;;;;0.47;0.47;;;29.90;1.00;;;;;;5052495;28;20214;-76
2022/06/18 08:52:25;;;;;;;0.50;0.50;;;30.00;1.00;;;;;;5052566;28;20695;-75
2022/06/18 08:55:19;;;;;;;0.60;0.60;;;30.00;1.00;;;;;;5053485;28;20262;-78
2022/06/18 08:58:12;;;;;;;0.60;0.60;;;30.20;1.00;;;;;;5068261;28;20221;-78
2022/06/18 09:01:00;;;;;;;0.60;0.60;;;30.20;1.00;;;;;;5070075;28;20587;-81
2022/06/18 09:03:51;;;;;;;0.60;0.60;;;30.30;1.00;;;;;;5077638;28;20174;-80
2022/06/18 09:06:52;;;;;;;0.50;0.50;;;30.50;1.00;;;;;;5078891;28;20181;-80
2022/06/18 09:09:56;;;;;;;0.50;0.50;;;31.10;1.00;;;;;;5078628;28;20224;-80
2022/06/18 09:12:29;;;;;;;0.50;0.50;;;31.50;1.00;;;;;;5078824;28;20197;-79
2022/06/18 09:15:04;;;;;;;0.30;0.30;;;31.80;1.00;;;;;;5079006;28;20662;-79
2022/06/18 09:17:44;;;;;;;0.30;0.30;;;32.10;1.00;;;;;;5078166;28;20532;-79
2022/06/18 09:20:25;;;;;;;0.40;0.40;;;32.00;1.00;;;;;;5079293;28;20257;-79
2022/06/18 09:22:53;;;;;;;0.40;0.40;;;32.10;1.00;;;;;;5079750;28;20200;-80
2022/06/18 09:25:23;;;;;;;0.40;0.40;;;32.20;1.00;;;;;;5079763;28;20239;-80
2022/06/18 09:28:03;;;;;;;0.50;0.50;;;32.40;1.00;;;;;;5078355;28;20183;-78
2022/06/18 09:30:35;;;;;;;0.50;0.50;;;31.80;1.00;;;;;;5067975;28;20749;-77
2022/06/18 09:33:12;;;;;;;0.50;0.50;;;31.40;1.00;;;;;;5070957;28;20198;-76
2022/06/18 09:36:02;;;;;;;0.63;0.63;;;31.20;1.00;;;;;;5064315;28;20179;-75
2022/06/18 09:38:35;;;;;;;0.57;0.57;;;31.40;1.00;;;;;;5071516;28;20755;-75
2022/06/18 09:41:06;;;;;;;0.50;0.50;;;31.60;1.00;;;;;;5072850;28;20178;-76
2022/06/18 09:43:57;;;;;;;0.43;0.43;;;31.80;1.00;;;;;;5072036;28;20232;-76
2022/06/18 09:46:25;;;;;;;0.50;0.50;;;32.10;1.00;;;;;;5071600;28;20247;-76
2022/06/18 09:48:51;;;;;;;0.50;0.50;;;32.20;1.00;;;;;;5070826;28;20686;-76
2022/06/18 09:51:28;;;;;;;0.60;0.60;;;32.30;1.00;;;;;;5071215;28;20174;-77
2022/06/18 09:54:00;;;;;;;0.47;0.47;;;32.60;1.00;;;;;;5067451;28;20171;-77
2022/06/18 09:56:35;;;;;;;0.40;0.40;;;32.60;1.00;;;;;;5067931;28;20193;-75
2022/06/18 09:59:08;;;;;;;0.50;0.50;;;32.90;1.00;;;;;;5059190;28;20174;-75
2022/06/18 10:01:39;;;;;;;0.32;0.32;;;33.20;1.00;;;;;;5062862;28;20252;-75
2022/06/18 10:06:57;;;;;;;0.57;0.57;;;33.20;1.00;;;;;;5070248;28;20236;-76
2022/06/18 10:09:52;;;;;;;0.28;0.28;;;33.50;1.00;;;;;;5070213;28;20268;-76
2022/06/18 10:12:48;;;;;;;0.50;0.50;;;33.40;1.00;;;;;;5062264;28;20203;-77
2022/06/18 10:15:15;;;;;;;0.50;0.50;;;33.20;1.00;;;;;;5049329;28;20192;-77
2022/06/18 10:17:56;;;;;;;0.35;0.35;;;33.50;1.00;;;;;;5051460;28;20186;-77
2022/06/18 10:20:29;;;;;;;0.50;0.50;;;33.90;1.00;;;;;;5052544;28;20238;-78
2022/06/18 10:22:54;;;;;;;0.40;0.40;;;34.20;1.00;;;;;;5052093;28;20319;-75
2022/06/18 10:25:28;;;;;;;0.40;0.40;;;34.40;1.00;;;;;;5051327;28;20171;-75
2022/06/18 10:28:18;;;;;;;0.30;0.30;;;34.20;1.00;;;;;;5050799;28;20810;-75
2022/06/18 10:31:04;;;;;;;0.20;0.20;;;34.40;1.00;;;;;;5050547;28;20210;-75
2022/06/18 10:34:15;;;;;;;0.32;0.32;;;34.50;1.00;;;;;;5050851;28;20698;-75
2022/06/18 10:37:04;;;;;;;0.20;0.20;;;34.50;1.00;;;;;;5033137;28;20269;-75
2022/06/18 10:39:58;;;;;;;0.20;0.20;;;34.90;1.00;;;;;;5049740;28;20185;-75
2022/06/18 10:42:55;;;;;;;0.20;0.20;;;35.30;1.00;;;;;;5050882;28;20197;-76
2022/06/18 10:45:35;;;;;;;0.20;0.20;;;35.60;1.00;;;;;;5046616;28;20516;-76
2022/06/18 10:48:02;;;;;;;0.20;0.20;;;35.50;1.00;;;;;;5051017;28;20598;-75
2022/06/18 10:50:29;;;;;;;0.10;0.10;;;35.40;1.00;;;;;;5050417;28;20312;-75
2022/06/18 10:53:04;;;;;;;0.10;0.10;;;35.30;1.00;;;;;;5050847;28;20201;-75
2022/06/18 10:55:30;;;;;;;0.30;0.30;;;35.30;1.00;;;;;;5050962;28;20205;-75
2022/06/18 10:58:08;;;;;;;0.10;0.10;;;35.30;1.00;;;;;;5050765;28;20201;-76
2022/06/18 11:00:33;;;;;;;0.20;0.20;;;35.40;1.00;;;;;;5050424;28;20202;-76
2022/06/18 11:03:03;;;;;;;0.25;0.25;;;35.20;1.00;;;;;;5050874;28;20221;-74
2022/06/18 11:05:32;;;;;;;0.20;0.20;;;34.70;1.00;;;;;;5051017;28;20789;-74
2022/06/18 11:08:00;;;;;;;0.22;0.22;;;34.60;1.00;;;;;;5050667;28;20170;-75
2022/06/18 11:10:43;;;;;;;0.30;0.30;;;34.60;1.00;;;;;;5049872;28;20284;-76
2022/06/18 11:13:22;;;;;;;0.32;0.32;;;34.70;1.00;;;;;;5055254;28;20194;-76
2022/06/18 11:15:48;;;;;;;0.25;0.25;;;35.00;1.00;;;;;;5061221;28;20176;-75
2022/06/18 11:18:18;;;;;;;0.30;0.30;;;35.10;1.00;;;;;;5052708;28;20178;-77
2022/06/18 11:20:59;;;;;;;0.20;0.20;;;35.10;1.00;;;;;;5068677;28;20198;-76
2022/06/18 11:23:25;;;;;;;0.08;0.08;;;35.00;1.00;;;;;;5075428;28;20175;-78
2022/06/18 11:25:54;;;;;;;0.10;0.10;;;35.00;1.00;;;;;;5074285;28;20179;-79
2022/06/18 11:28:28;;;;;;;0.20;0.20;;;34.90;1.00;;;;;;5073677;28;20671;-78
2022/06/18 11:30:55;;;;;;;0.40;0.40;;;35.10;1.00;;;;;;5059641;28;20179;-79
2022/06/18 11:33:34;;;;;;;0.20;0.20;;;35.50;1.00;;;;;;5058595;28;20198;-79
2022/06/18 11:36:17;;;;;;;0.15;0.15;;;35.40;1.00;;;;;;5058313;28;20660;-80
2022/06/18 11:38:57;;;;;;;0.10;0.10;;;35.00;1.00;;;;;;5078510;28;20186;-81
2022/06/18 11:41:44;;;;;;;0.17;0.17;;;34.80;1.00;;;;;;5083884;28;20210;-80
2022/06/18 11:44:19;;;;;;;0.17;0.17;;;35.00;1.00;;;;;;5081730;28;20180;-82
2022/06/18 11:47:12;;;;;;;0.10;0.10;;;35.30;1.00;;;;;;5069634;28;20591;-83
2022/06/18 11:49:49;;;;;;;0.22;0.22;;;35.40;1.00;;;;;;5072054;28;20222;-79
2022/06/18 11:52:32;;;;;;;0.30;0.30;;;35.20;1.00;;;;;;5078586;28;20254;-79
2022/06/18 11:55:27;;;;;;;0.20;0.20;;;35.20;1.00;;;;;;5059613;28;20194;-77
2022/06/18 11:58:12;;;;;;;0.17;0.17;;;35.50;1.00;;;;;;5065783;28;20192;-78
2022/06/18 12:00:52;;;;;;;0.10;0.10;;;35.60;1.00;;;;;;5066936;28;20183;-77
2022/06/18 12:03:30;;;;;;;0.15;0.15;;;35.80;1.00;;;;;;5072512;28;20695;-78
2022/06/18 12:05:59;;;;;;;0.30;0.30;;;36.10;1.00;;;;;;5086352;28;20172;-76
2022/06/18 12:08:25;;;;;;;0.00;0.00;;;36.20;1.00;;;;;;5079028;28;20176;-77
2022/06/18 12:11:09;;;;;;;0.00;0.00;;;36.20;1.00;;;;;;5080264;28;20197;-76
2022/06/18 12:13:42;;;;;;;0.10;0.10;;;35.80;1.00;;;;;;5071709;28;20312;-77
2022/06/18 12:16:34;;;;;;;0.20;0.20;;;35.40;1.00;;;;;;5082409;28;20175;-76
2022/06/18 12:19:00;;;;;;;0.10;0.10;;;35.70;1.00;;;;;;5081863;28;20181;-78
2022/06/18 12:21:35;;;;;;;0.15;0.15;;;35.60;1.00;;;;;;5089344;28;20192;-75
2022/06/18 12:24:19;;;;;;;0.10;0.10;;;35.80;1.00;;;;;;5065546;28;20647;-77
2022/06/18 12:26:56;;;;;;;0.00;0.00;;;36.00;1.00;;;;;;5084109;28;20178;-79
2022/06/18 12:29:40;;;;;;;0.17;0.17;;;36.30;1.00;;;;;;5079059;28;20214;-79
2022/06/18 12:32:18;;;;;;;0.00;0.00;;;36.70;1.00;;;;;;5081192;28;20201;-78
2022/06/18 12:35:19;;;;;;;0.00;0.00;;;36.70;1.00;;;;;;5100586;28;20224;-79
2022/06/18 12:37:47;;;;;;;0.10;0.10;;;36.90;1.00;;;;;;5045465;28;20235;-80
2022/06/18 12:40:31;;;;;;;0.13;0.13;;;36.90;1.00;;;;;;5089622;28;20334;-81
2022/06/18 12:43:07;;;;;;;0.20;0.20;;;36.60;1.00;;;;;;5109902;28;20198;-78
2022/06/18 12:45:55;;;;;;;0.10;0.10;;;36.70;1.00;;;;;;5094996;28;20250;-78
2022/06/18 12:48:32;;;;;;;0.10;0.10;;;36.90;1.00;;;;;;5030071;28;20588;-79
2022/06/18 12:51:12;;;;;;;0.10;0.10;;;36.50;1.00;;;;;;5079283;28;20268;-79
2022/06/18 12:53:57;;;;;;;0.10;0.10;;;36.10;1.00;;;;;;5083336;28;20666;-79
2022/06/18 12:56:51;;;;;;;0.10;0.10;;;36.00;1.00;;;;;;5078751;28;20243;-79
2022/06/18 12:59:28;;;;;;;0.10;0.10;;;36.10;1.00;;;;;;5070680;28;20186;-79
2022/06/18 13:02:21;;;;;;;0.10;0.10;;;36.20;1.00;;;;;;5071342;28;20318;-79
2022/06/18 13:05:14;;;;;;;0.17;0.17;;;36.30;1.00;;;;;;5018722;28;20229;-81
2022/06/18 13:07:52;;;;;;;0.05;0.05;;;36.30;1.00;;;;;;5079183;28;20205;-80
2022/06/18 13:10:45;;;;;;;0.10;0.10;;;36.40;1.00;;;;;;5068076;28;20220;-78
2022/06/18 13:13:28;;;;;;;0.00;0.00;;;36.60;1.00;;;;;;5064177;28;20255;-77
2022/06/18 13:16:02;;;;;;;0.10;0.10;;;36.90;1.00;;;;;;5061024;28;20181;-76
2022/06/18 13:18:35;;;;;;;0.10;0.10;;;36.90;1.00;;;;;;5070716;28;20185;-77
2022/06/18 13:21:05;;;;;;;0.10;0.10;;;36.30;1.00;;;;;;5087324;28;20584;-77
2022/06/18 13:29:13;;;;;;;0.00;0.00;;;36.00;1.00;;;;;;5072228;28;20312;-77
2022/06/18 13:31:49;;;;;;;0.10;0.10;;;36.20;1.00;;;;;;5080797;28;20724;-77
2022/06/18 13:34:34;;;;;;;0.15;0.15;;;35.90;1.00;;;;;;5074802;28;20217;-77
2022/06/18 13:37:20;;;;;;;0.05;0.05;;;35.80;1.00;;;;;;5082140;28;20709;-77